sensor_id;sensor_type;location;lat;lon;timestamp;temperature;humidity
3134;DHT22;1577;49.912;10.924;2022-09-01T00:02:06;18.00;99.90
3134;DHT22;1577;49.912;10.924;2022-09-01T00:04:36;17.90;99.90
3134;DHT22;1577;49.912;10.924;2022-09-01T00:07:04;17.90;99.90
3134;DHT22;1577;49.912;10.924;2022-09-01T00:09:30;17.90;99.90
3134;DHT22;1577;49.912;10.924;2022-09-01T00:11:56;17.90;99.90
3134;DHT22;1577;49.912;10.924;2022-09-01T00:14:29;17.80;99.90
3134;DHT22;1577;49.912;10.924;2022-09-01T00:16:55;17.80;99.90
3134;DHT22;1577;49.912;10.924;2022-09-01T00:19:22;17.70;99.90
3134;DHT22;1577;49.912;10.924;2022-09-01T00:21:48;17.60;99.90
3134;DHT22;1577;49.912;10.924;2022-09-01T00:24:16;17.60;99.90
3134;DHT22;1577;49.912;10.924;2022-09-01T00:26:42;17.70;99.90
3134;DHT22;1577;49.912;10.924;2022-09-01T00:29:08;17.60;99.90
3134;DHT22;1577;49.912;10.924;2022-09-01T00:31:33;17.60;99.90
3134;DHT22;1577;49.912;10.924;2022-09-01T00:33:59;17.50;99.90
3134;DHT22;1577;49.912;10.924;2022-09-01T00:36:25;17.40;99.90
3134;DHT22;1577;49.912;10.924;2022-09-01T00:38:51;17.30;99.90
3134;DHT22;1577;49.912;10.924;2022-09-01T00:41:20;17.20;99.90
3134;DHT22;1577;49.912;10.924;2022-09-01T00:43:49;17.20;99.90
3134;DHT22;1577;49.912;10.924;2022-09-01T00:46:34;17.10;99.90
3134;DHT22;1577;49.912;10.924;2022-09-01T00:49:19;17.00;99.90
3134;DHT22;1577;49.912;10.924;2022-09-01T00:51:50;16.90;99.90
3134;DHT22;1577;49.912;10.924;2022-09-01T00:54:22;16.80;99.90
3134;DHT22;1577;49.912;10.924;2022-09-01T00:56:49;16.80;99.90
3134;DHT22;1577;49.912;10.924;2022-09-01T00:59:17;16.80;99.90
3134;DHT22;1577;49.912;10.924;2022-09-01T01:01:44;16.70;99.90
3134;DHT22;1577;49.912;10.924;2022-09-01T01:04:10;16.70;99.90
3134;DHT22;1577;49.912;10.924;2022-09-01T01:06:43;16.70;99.90
3134;DHT22;1577;49.912;10.924;2022-09-01T01:09:15;16.70;99.90
3134;DHT22;1577;49.912;10.924;2022-09-01T01:11:41;16.70;99.90
3134;DHT22;1577;49.912;10.924;2022-09-01T01:14:10;16.70;99.90
3134;DHT22;1577;49.912;10.924;2022-09-01T01:16:41;16.60;99.90
3134;DHT22;1577;49.912;10.924;2022-09-01T01:19:36;16.60;99.90
3134;DHT22;1577;49.912;10.924;2022-09-01T01:22:48;16.50;99.90
3134;DHT22;1577;49.912;10.924;2022-09-01T01:25:55;16.40;99.90
3134;DHT22;1577;49.912;10.924;2022-09-01T01:28:23;16.30;99.90
3134;DHT22;1577;49.912;10.924;2022-09-01T01:30:58;16.20;99.90
3134;DHT22;1577;49.912;10.924;2022-09-01T01:33:30;16.20;99.90
3134;DHT22;1577;49.912;10.924;2022-09-01T01:35:57;16.20;99.90
3134;DHT22;1577;49.912;10.924;2022-09-01T01:38:23;16.10;99.90
3134;DHT22;1577;49.912;10.924;2022-09-01T01:40:50;16.00;99.90
3134;DHT22;1577;49.912;10.924;2022-09-01T01:43:18;16.00;99.90
3134;DHT22;1577;49.912;10.924;2022-09-01T01:45:47;16.00;99.90
3134;DHT22;1577;49.912;10.924;2022-09-01T01:48:17;16.00;99.90
3134;DHT22;1577;49.912;10.924;2022-09-01T01:50:51;16.10;99.90
3134;DHT22;1577;49.912;10.924;2022-09-01T01:53:17;16.10;99.90
3134;DHT22;1577;49.912;10.924;2022-09-01T01:55:43;16.10;99.90
3134;DHT22;1577;49.912;10.924;2022-09-01T01:58:10;16.10;99.90
3134;DHT22;1577;49.912;10.924;2022-09-01T02:00:37;16.00;99.90
3134;DHT22;1577;49.912;10.924;2022-09-01T02:03:03;15.90;99.90
3134;DHT22;1577;49.912;10.924;2022-09-01T02:05:34;15.90;99.90
3134;DHT22;1577;49.912;10.924;2022-09-01T02:08:04;15.80;99.90
3134;DHT22;1577;49.912;10.924;2022-09-01T02:10:34;15.70;99.90
3134;DHT22;1577;49.912;10.924;2022-09-01T02:13:02;15.70;99.90
3134;DHT22;1577;49.912;10.924;2022-09-01T02:15:34;15.70;99.90
3134;DHT22;1577;49.912;10.924;2022-09-01T02:18:50;15.60;99.90
3134;DHT22;1577;49.912;10.924;2022-09-01T02:20:59;15.60;99.90
3134;DHT22;1577;49.912;10.924;2022-09-01T02:23:25;15.60;99.90
3134;DHT22;1577;49.912;10.924;2022-09-01T02:25:54;15.60;99.90
3134;DHT22;1577;49.912;10.924;2022-09-01T02:28:22;15.50;99.90
3134;DHT22;1577;49.912;10.924;2022-09-01T02:30:50;15.50;99.90
3134;DHT22;1577;49.912;10.924;2022-09-01T02:33:18;15.50;99.90
3134;DHT22;1577;49.912;10.924;2022-09-01T02:35:49;15.50;99.90
3134;DHT22;1577;49.912;10.924;2022-09-01T02:38:16;15.50;99.90
3134;DHT22;1577;49.912;10.924;2022-09-01T02:40:46;15.50;99.90
3134;DHT22;1577;49.912;10.924;2022-09-01T02:43:15;15.50;99.90
3134;DHT22;1577;49.912;10.924;2022-09-01T02:45:48;15.40;99.90
3134;DHT22;1577;49.912;10.924;2022-09-01T02:48:21;15.40;99.90
3134;DHT22;1577;49.912;10.924;2022-09-01T02:50:49;15.50;99.90
3134;DHT22;1577;49.912;10.924;2022-09-01T02:53:15;15.50;99.90
3134;DHT22;1577;49.912;10.924;2022-09-01T02:55:43;15.50;99.90
3134;DHT22;1577;49.912;10.924;2022-09-01T02:58:09;15.40;99.90
3134;DHT22;1577;49.912;10.924;2022-09-01T03:00:37;15.40;99.90
3134;DHT22;1577;49.912;10.924;2022-09-01T03:03:05;15.40;99.90
3134;DHT22;1577;49.912;10.924;2022-09-01T03:05:32;15.30;99.90
3134;DHT22;1577;49.912;10.924;2022-09-01T03:08:03;15.30;99.90
3134;DHT22;1577;49.912;10.924;2022-09-01T03:10:40;15.30;99.90
3134;DHT22;1577;49.912;10.924;2022-09-01T03:13:12;15.30;99.90
3134;DHT22;1577;49.912;10.924;2022-09-01T03:15:39;15.30;99.90
3134;DHT22;1577;49.912;10.924;2022-09-01T03:23:00;15.40;99.90
3134;DHT22;1577;49.912;10.924;2022-09-01T03:25:29;15.40;99.90
3134;DHT22;1577;49.912;10.924;2022-09-01T03:27:56;15.40;99.90
3134;DHT22;1577;49.912;10.924;2022-09-01T03:30:30;15.40;99.90
3134;DHT22;1577;49.912;10.924;2022-09-01T03:32:57;15.50;99.90
3134;DHT22;1577;49.912;10.924;2022-09-01T03:37:50;15.50;99.90
3134;DHT22;1577;49.912;10.924;2022-09-01T03:40:17;15.50;99.90
3134;DHT22;1577;49.912;10.924;2022-09-01T03:42:43;15.40;99.90
3134;DHT22;1577;49.912;10.924;2022-09-01T03:45:10;15.50;99.90
3134;DHT22;1577;49.912;10.924;2022-09-01T03:47:40;15.40;99.90
3134;DHT22;1577;49.912;10.924;2022-09-01T03:50:12;15.30;99.90
3134;DHT22;1577;49.912;10.924;2022-09-01T03:52:49;15.20;99.90
3134;DHT22;1577;49.912;10.924;2022-09-01T03:55:19;15.20;99.90
3134;DHT22;1577;49.912;10.924;2022-09-01T03:57:49;15.20;99.90
3134;DHT22;1577;49.912;10.924;2022-09-01T04:00:17;15.10;99.90
3134;DHT22;1577;49.912;10.924;2022-09-01T04:02:49;15.10;99.90
3134;DHT22;1577;49.912;10.924;2022-09-01T04:05:17;15.10;99.90
3134;DHT22;1577;49.912;10.924;2022-09-01T04:07:46;15.10;99.90
3134;DHT22;1577;49.912;10.924;2022-09-01T04:10:14;15.10;99.90
3134;DHT22;1577;49.912;10.924;2022-09-01T04:12:40;15.10;99.90
3134;DHT22;1577;49.912;10.924;2022-09-01T04:15:06;15.00;99.90
3134;DHT22;1577;49.912;10.924;2022-09-01T04:17:33;15.00;99.90
3134;DHT22;1577;49.912;10.924;2022-09-01T04:20:17;14.90;99.90
3134;DHT22;1577;49.912;10.924;2022-09-01T04:22:45;14.80;99.90
3134;DHT22;1577;49.912;10.924;2022-09-01T04:25:12;14.80;99.90
3134;DHT22;1577;49.912;10.924;2022-09-01T04:27:39;14.80;99.90
3134;DHT22;1577;49.912;10.924;2022-09-01T04:30:06;14.80;99.90
3134;DHT22;1577;49.912;10.924;2022-09-01T04:32:35;14.70;99.90
3134;DHT22;1577;49.912;10.924;2022-09-01T04:35:03;14.70;99.90
3134;DHT22;1577;49.912;10.924;2022-09-01T04:37:29;14.70;99.90
3134;DHT22;1577;49.912;10.924;2022-09-01T04:39:56;14.60;99.90
3134;DHT22;1577;49.912;10.924;2022-09-01T04:42:23;14.60;99.90
3134;DHT22;1577;49.912;10.924;2022-09-01T04:44:50;14.60;99.90
3134;DHT22;1577;49.912;10.924;2022-09-01T04:47:16;14.60;99.90
3134;DHT22;1577;49.912;10.924;2022-09-01T04:49:44;14.60;99.90
3134;DHT22;1577;49.912;10.924;2022-09-01T04:52:12;14.50;99.90
3134;DHT22;1577;49.912;10.924;2022-09-01T04:54:38;14.40;99.90
3134;DHT22;1577;49.912;10.924;2022-09-01T04:57:04;14.50;99.90
3134;DHT22;1577;49.912;10.924;2022-09-01T04:59:32;14.50;99.90
3134;DHT22;1577;49.912;10.924;2022-09-01T05:01:59;14.50;99.90
3134;DHT22;1577;49.912;10.924;2022-09-01T05:04:29;14.50;99.90
3134;DHT22;1577;49.912;10.924;2022-09-01T05:06:59;14.50;99.90
3134;DHT22;1577;49.912;10.924;2022-09-01T05:09:28;14.50;99.90
3134;DHT22;1577;49.912;10.924;2022-09-01T05:11:55;14.60;99.90
3134;DHT22;1577;49.912;10.924;2022-09-01T05:14:22;14.50;99.90
3134;DHT22;1577;49.912;10.924;2022-09-01T05:16:49;14.50;99.90
3134;DHT22;1577;49.912;10.924;2022-09-01T05:19:16;14.50;99.90
3134;DHT22;1577;49.912;10.924;2022-09-01T05:21:46;14.50;99.90
3134;DHT22;1577;49.912;10.924;2022-09-01T05:24:14;14.50;99.90
3134;DHT22;1577;49.912;10.924;2022-09-01T05:26:42;14.60;99.90
3134;DHT22;1577;49.912;10.924;2022-09-01T05:29:09;14.60;99.90
3134;DHT22;1577;49.912;10.924;2022-09-01T05:31:39;14.60;99.90
3134;DHT22;1577;49.912;10.924;2022-09-01T05:34:06;14.50;99.90
3134;DHT22;1577;49.912;10.924;2022-09-01T05:36:37;14.60;99.90
3134;DHT22;1577;49.912;10.924;2022-09-01T05:39:04;14.60;99.90
3134;DHT22;1577;49.912;10.924;2022-09-01T05:43:58;14.80;99.90
3134;DHT22;1577;49.912;10.924;2022-09-01T05:46:26;14.80;99.90
3134;DHT22;1577;49.912;10.924;2022-09-01T05:48:53;14.90;99.90
3134;DHT22;1577;49.912;10.924;2022-09-01T05:51:23;14.90;99.90
3134;DHT22;1577;49.912;10.924;2022-09-01T05:53:52;15.00;99.90
3134;DHT22;1577;49.912;10.924;2022-09-01T05:56:20;15.10;99.90
3134;DHT22;1577;49.912;10.924;2022-09-01T05:58:48;15.20;99.90
3134;DHT22;1577;49.912;10.924;2022-09-01T06:01:19;15.20;99.90
3134;DHT22;1577;49.912;10.924;2022-09-01T06:03:56;15.30;99.90
3134;DHT22;1577;49.912;10.924;2022-09-01T06:06:36;15.40;99.90
3134;DHT22;1577;49.912;10.924;2022-09-01T06:09:04;15.50;99.90
3134;DHT22;1577;49.912;10.924;2022-09-01T06:11:30;15.50;99.90
3134;DHT22;1577;49.912;10.924;2022-09-01T06:14:00;15.60;99.90
3134;DHT22;1577;49.912;10.924;2022-09-01T06:16:26;15.70;99.90
3134;DHT22;1577;49.912;10.924;2022-09-01T06:18:54;15.80;99.90
3134;DHT22;1577;49.912;10.924;2022-09-01T06:21:22;15.90;99.90
3134;DHT22;1577;49.912;10.924;2022-09-01T06:23:50;16.00;99.90
3134;DHT22;1577;49.912;10.924;2022-09-01T06:26:19;16.10;99.90
3134;DHT22;1577;49.912;10.924;2022-09-01T06:28:45;16.20;99.90
3134;DHT22;1577;49.912;10.924;2022-09-01T06:31:13;16.30;99.90
3134;DHT22;1577;49.912;10.924;2022-09-01T06:33:39;16.30;99.90
3134;DHT22;1577;49.912;10.924;2022-09-01T06:36:05;16.40;99.90
3134;DHT22;1577;49.912;10.924;2022-09-01T06:38:34;16.40;99.90
3134;DHT22;1577;49.912;10.924;2022-09-01T06:41:04;16.50;99.90
3134;DHT22;1577;49.912;10.924;2022-09-01T06:43:34;16.40;99.90
3134;DHT22;1577;49.912;10.924;2022-09-01T06:46:01;16.50;99.90
3134;DHT22;1577;49.912;10.924;2022-09-01T06:48:27;16.60;99.90
3134;DHT22;1577;49.912;10.924;2022-09-01T06:51:01;16.70;99.90
3134;DHT22;1577;49.912;10.924;2022-09-01T06:53:29;16.90;99.90
3134;DHT22;1577;49.912;10.924;2022-09-01T06:55:56;17.00;99.90
3134;DHT22;1577;49.912;10.924;2022-09-01T06:58:23;17.10;99.90
3134;DHT22;1577;49.912;10.924;2022-09-01T07:00:50;17.20;99.90
3134;DHT22;1577;49.912;10.924;2022-09-01T07:03:16;17.30;99.90
3134;DHT22;1577;49.912;10.924;2022-09-01T07:05:46;17.40;99.90
3134;DHT22;1577;49.912;10.924;2022-09-01T07:08:15;17.50;99.90
3134;DHT22;1577;49.912;10.924;2022-09-01T07:10:49;17.70;99.90
3134;DHT22;1577;49.912;10.924;2022-09-01T07:13:21;17.90;99.90
3134;DHT22;1577;49.912;10.924;2022-09-01T07:15:53;18.10;99.90
3134;DHT22;1577;49.912;10.924;2022-09-01T07:18:22;18.50;99.90
3134;DHT22;1577;49.912;10.924;2022-09-01T07:20:50;19.40;99.90
3134;DHT22;1577;49.912;10.924;2022-09-01T07:23:18;20.40;99.90
3134;DHT22;1577;49.912;10.924;2022-09-01T07:25:49;21.50;99.90
3134;DHT22;1577;49.912;10.924;2022-09-01T07:28:19;22.40;99.90
3134;DHT22;1577;49.912;10.924;2022-09-01T07:30:49;23.20;99.90
3134;DHT22;1577;49.912;10.924;2022-09-01T07:33:17;24.10;99.60
3134;DHT22;1577;49.912;10.924;2022-09-01T07:35:45;25.10;97.90
3134;DHT22;1577;49.912;10.924;2022-09-01T07:38:11;25.90;96.30
3134;DHT22;1577;49.912;10.924;2022-09-01T07:40:39;26.60;93.80
3134;DHT22;1577;49.912;10.924;2022-09-01T07:43:07;27.30;91.20
3134;DHT22;1577;49.912;10.924;2022-09-01T07:45:38;27.60;90.20
3134;DHT22;1577;49.912;10.924;2022-09-01T07:48:07;27.60;87.20
3134;DHT22;1577;49.912;10.924;2022-09-01T07:50:41;27.90;88.00
3134;DHT22;1577;49.912;10.924;2022-09-01T07:53:19;27.90;85.00
3134;DHT22;1577;49.912;10.924;2022-09-01T07:55:50;28.20;85.20
3134;DHT22;1577;49.912;10.924;2022-09-01T07:58:18;28.30;81.90
3134;DHT22;1577;49.912;10.924;2022-09-01T08:00:45;28.10;81.00
3134;DHT22;1577;49.912;10.924;2022-09-01T08:03:17;27.90;81.20
3134;DHT22;1577;49.912;10.924;2022-09-01T08:05:43;27.90;80.60
3134;DHT22;1577;49.912;10.924;2022-09-01T08:08:08;27.50;79.60
3134;DHT22;1577;49.912;10.924;2022-09-01T08:10:40;27.50;82.20
3134;DHT22;1577;49.912;10.924;2022-09-01T08:13:08;27.60;79.90
3134;DHT22;1577;49.912;10.924;2022-09-01T08:15:34;27.70;79.30
3134;DHT22;1577;49.912;10.924;2022-09-01T08:17:59;27.80;79.10
3134;DHT22;1577;49.912;10.924;2022-09-01T08:20:25;28.00;77.30
3134;DHT22;1577;49.912;10.924;2022-09-01T08:22:51;28.10;76.30
3134;DHT22;1577;49.912;10.924;2022-09-01T08:25:17;27.90;76.70
3134;DHT22;1577;49.912;10.924;2022-09-01T08:27:42;28.20;76.30
3134;DHT22;1577;49.912;10.924;2022-09-01T08:30:10;28.40;75.40
3134;DHT22;1577;49.912;10.924;2022-09-01T08:32:40;28.70;73.70
3134;DHT22;1577;49.912;10.924;2022-09-01T08:35:10;28.70;73.90
3134;DHT22;1577;49.912;10.924;2022-09-01T08:37:37;28.70;72.30
3134;DHT22;1577;49.912;10.924;2022-09-01T08:40:05;28.60;72.90
3134;DHT22;1577;49.912;10.924;2022-09-01T08:47:46;29.00;71.30
3134;DHT22;1577;49.912;10.924;2022-09-01T08:50:13;29.20;71.70
3134;DHT22;1577;49.912;10.924;2022-09-01T08:52:42;29.40;71.30
3134;DHT22;1577;49.912;10.924;2022-09-01T08:55:25;29.20;70.90
3134;DHT22;1577;49.912;10.924;2022-09-01T08:57:55;29.00;68.70
3134;DHT22;1577;49.912;10.924;2022-09-01T09:00:27;28.60;71.00
3134;DHT22;1577;49.912;10.924;2022-09-01T09:16:52;28.70;70.70
3134;DHT22;1577;49.912;10.924;2022-09-01T09:19:28;28.80;68.50
3134;DHT22;1577;49.912;10.924;2022-09-01T09:21:56;28.60;69.40
3134;DHT22;1577;49.912;10.924;2022-09-01T09:27:24;28.70;68.00
3134;DHT22;1577;49.912;10.924;2022-09-01T09:29:59;28.60;68.30
3134;DHT22;1577;49.912;10.924;2022-09-01T09:35:36;28.90;66.50
3134;DHT22;1577;49.912;10.924;2022-09-01T09:41:02;28.70;67.50
3134;DHT22;1577;49.912;10.924;2022-09-01T09:43:31;29.10;66.90
3134;DHT22;1577;49.912;10.924;2022-09-01T09:48:45;29.40;64.50
3134;DHT22;1577;49.912;10.924;2022-09-01T09:51:19;29.00;64.10
3134;DHT22;1577;49.912;10.924;2022-09-01T09:53:44;28.40;64.90
3134;DHT22;1577;49.912;10.924;2022-09-01T09:56:23;27.70;66.20
3134;DHT22;1577;49.912;10.924;2022-09-01T09:58:51;27.00;67.20
3134;DHT22;1577;49.912;10.924;2022-09-01T10:03:58;25.60;71.10
3134;DHT22;1577;49.912;10.924;2022-09-01T10:09:07;24.90;73.10
3134;DHT22;1577;49.912;10.924;2022-09-01T10:11:44;24.70;74.20
3134;DHT22;1577;49.912;10.924;2022-09-01T10:14:32;24.50;74.50
3134;DHT22;1577;49.912;10.924;2022-09-01T10:17:10;24.30;75.30
3134;DHT22;1577;49.912;10.924;2022-09-01T10:19:39;24.20;75.60
3134;DHT22;1577;49.912;10.924;2022-09-01T10:22:08;24.10;75.30
3134;DHT22;1577;49.912;10.924;2022-09-01T10:24:37;23.90;75.30
3134;DHT22;1577;49.912;10.924;2022-09-01T10:27:07;23.80;75.00
3134;DHT22;1577;49.912;10.924;2022-09-01T10:32:25;23.90;76.10
3134;DHT22;1577;49.912;10.924;2022-09-01T10:34:52;23.90;75.30
3134;DHT22;1577;49.912;10.924;2022-09-01T10:37:18;23.90;74.10
3134;DHT22;1577;49.912;10.924;2022-09-01T10:42:35;24.00;74.20
3134;DHT22;1577;49.912;10.924;2022-09-01T10:45:01;24.00;74.10
3134;DHT22;1577;49.912;10.924;2022-09-01T10:47:33;24.10;74.90
3134;DHT22;1577;49.912;10.924;2022-09-01T11:11:03;24.80;74.30
3134;DHT22;1577;49.912;10.924;2022-09-01T11:13:45;24.80;74.10
3134;DHT22;1577;49.912;10.924;2022-09-01T11:30:21;24.90;72.60
3134;DHT22;1577;49.912;10.924;2022-09-01T11:32:50;24.90;72.90
3134;DHT22;1577;49.912;10.924;2022-09-01T11:35:20;24.90;72.90
3134;DHT22;1577;49.912;10.924;2022-09-01T11:37:52;25.00;72.70
3134;DHT22;1577;49.912;10.924;2022-09-01T11:40:39;25.10;72.20
3134;DHT22;1577;49.912;10.924;2022-09-01T11:43:14;25.00;72.20
3134;DHT22;1577;49.912;10.924;2022-09-01T11:46:23;24.90;72.30
3134;DHT22;1577;49.912;10.924;2022-09-01T11:48:45;24.90;71.90
3134;DHT22;1577;49.912;10.924;2022-09-01T11:51:11;25.00;71.80
3134;DHT22;1577;49.912;10.924;2022-09-01T11:53:37;25.10;71.80
3134;DHT22;1577;49.912;10.924;2022-09-01T11:56:32;25.20;70.90
3134;DHT22;1577;49.912;10.924;2022-09-01T11:58:58;25.10;69.80
3134;DHT22;1577;49.912;10.924;2022-09-01T12:01:35;25.10;70.40
3134;DHT22;1577;49.912;10.924;2022-09-01T12:04:20;25.20;70.30
3134;DHT22;1577;49.912;10.924;2022-09-01T12:06:56;25.30;70.30
3134;DHT22;1577;49.912;10.924;2022-09-01T12:09:31;25.40;70.20
3134;DHT22;1577;49.912;10.924;2022-09-01T12:11:57;25.40;70.80
3134;DHT22;1577;49.912;10.924;2022-09-01T12:14:23;25.60;70.60
3134;DHT22;1577;49.912;10.924;2022-09-01T12:17:04;25.40;69.50
3134;DHT22;1577;49.912;10.924;2022-09-01T12:19:33;25.30;69.90
3134;DHT22;1577;49.912;10.924;2022-09-01T12:22:06;25.50;70.50
3134;DHT22;1577;49.912;10.924;2022-09-01T12:24:37;25.50;69.70
3134;DHT22;1577;49.912;10.924;2022-09-01T12:27:03;25.50;69.70
3134;DHT22;1577;49.912;10.924;2022-09-01T12:29:29;25.30;69.90
3134;DHT22;1577;49.912;10.924;2022-09-01T12:31:56;25.20;70.70
3134;DHT22;1577;49.912;10.924;2022-09-01T12:34:46;25.30;70.50
3134;DHT22;1577;49.912;10.924;2022-09-01T12:39:42;25.00;70.40
3134;DHT22;1577;49.912;10.924;2022-09-01T12:47:06;24.90;71.30
3134;DHT22;1577;49.912;10.924;2022-09-01T12:49:51;24.80;70.60
3134;DHT22;1577;49.912;10.924;2022-09-01T12:52:22;24.70;71.20
3134;DHT22;1577;49.912;10.924;2022-09-01T12:55:16;24.60;70.60
3134;DHT22;1577;49.912;10.924;2022-09-01T12:57:45;24.60;71.60
3134;DHT22;1577;49.912;10.924;2022-09-01T13:00:17;24.60;72.20
3134;DHT22;1577;49.912;10.924;2022-09-01T13:08:00;24.80;70.30
3134;DHT22;1577;49.912;10.924;2022-09-01T13:10:30;24.90;69.10
3134;DHT22;1577;49.912;10.924;2022-09-01T13:12:56;25.00;68.90
3134;DHT22;1577;49.912;10.924;2022-09-01T13:15:23;25.10;69.10
3134;DHT22;1577;49.912;10.924;2022-09-01T13:17:50;25.30;68.30
3134;DHT22;1577;49.912;10.924;2022-09-01T13:20:16;25.50;67.50
3134;DHT22;1577;49.912;10.924;2022-09-01T13:22:42;25.60;67.60
3134;DHT22;1577;49.912;10.924;2022-09-01T13:25:10;25.60;67.10
3134;DHT22;1577;49.912;10.924;2022-09-01T13:27:38;25.50;66.50
3134;DHT22;1577;49.912;10.924;2022-09-01T13:30:15;25.50;67.50
3134;DHT22;1577;49.912;10.924;2022-09-01T13:32:42;25.50;67.30
3134;DHT22;1577;49.912;10.924;2022-09-01T13:35:10;25.30;67.50
3134;DHT22;1577;49.912;10.924;2022-09-01T13:37:36;25.10;68.40
3134;DHT22;1577;49.912;10.924;2022-09-01T13:40:03;24.90;69.70
3134;DHT22;1577;49.912;10.924;2022-09-01T13:42:30;24.80;69.60
3134;DHT22;1577;49.912;10.924;2022-09-01T13:44:56;24.60;68.60
3134;DHT22;1577;49.912;10.924;2022-09-01T13:47:21;24.60;68.40
3134;DHT22;1577;49.912;10.924;2022-09-01T13:49:48;24.60;68.40
3134;DHT22;1577;49.912;10.924;2022-09-01T13:52:14;24.50;67.90
3134;DHT22;1577;49.912;10.924;2022-09-01T13:54:40;24.50;67.40
3134;DHT22;1577;49.912;10.924;2022-09-01T13:57:08;24.30;69.30
3134;DHT22;1577;49.912;10.924;2022-09-01T13:59:36;24.10;69.00
3134;DHT22;1577;49.912;10.924;2022-09-01T14:02:03;23.90;69.50
3134;DHT22;1577;49.912;10.924;2022-09-01T14:04:29;23.70;68.90
3134;DHT22;1577;49.912;10.924;2022-09-01T14:06:55;23.50;69.70
3134;DHT22;1577;49.912;10.924;2022-09-01T14:09:20;23.40;69.70
3134;DHT22;1577;49.912;10.924;2022-09-01T14:11:46;23.40;70.20
3134;DHT22;1577;49.912;10.924;2022-09-01T14:14:12;23.30;70.40
3134;DHT22;1577;49.912;10.924;2022-09-01T14:16:38;23.40;71.00
3134;DHT22;1577;49.912;10.924;2022-09-01T14:19:04;23.50;70.80
3134;DHT22;1577;49.912;10.924;2022-09-01T14:21:30;23.60;70.40
3134;DHT22;1577;49.912;10.924;2022-09-01T14:23:55;23.70;71.10
3134;DHT22;1577;49.912;10.924;2022-09-01T14:26:21;23.70;70.70
3134;DHT22;1577;49.912;10.924;2022-09-01T14:28:48;23.70;69.80
3134;DHT22;1577;49.912;10.924;2022-09-01T14:31:15;23.70;70.40
3134;DHT22;1577;49.912;10.924;2022-09-01T14:33:42;23.70;70.40
3134;DHT22;1577;49.912;10.924;2022-09-01T14:36:19;23.60;70.50
3134;DHT22;1577;49.912;10.924;2022-09-01T14:38:46;23.60;71.10
3134;DHT22;1577;49.912;10.924;2022-09-01T14:41:14;23.60;71.70
3134;DHT22;1577;49.912;10.924;2022-09-01T14:43:40;23.60;72.30
3134;DHT22;1577;49.912;10.924;2022-09-01T14:46:09;23.70;71.90
3134;DHT22;1577;49.912;10.924;2022-09-01T14:48:37;23.70;71.80
3134;DHT22;1577;49.912;10.924;2022-09-01T14:51:03;23.70;72.00
3134;DHT22;1577;49.912;10.924;2022-09-01T14:53:30;23.70;70.40
3134;DHT22;1577;49.912;10.924;2022-09-01T14:55:57;23.70;71.00
3134;DHT22;1577;49.912;10.924;2022-09-01T14:58:24;23.70;69.20
3134;DHT22;1577;49.912;10.924;2022-09-01T15:00:51;23.60;69.10
3134;DHT22;1577;49.912;10.924;2022-09-01T15:03:17;23.60;69.80
3134;DHT22;1577;49.912;10.924;2022-09-01T15:05:43;23.50;69.60
3134;DHT22;1577;49.912;10.924;2022-09-01T15:08:09;23.40;69.70
3134;DHT22;1577;49.912;10.924;2022-09-01T15:10:35;23.50;69.80
3134;DHT22;1577;49.912;10.924;2022-09-01T15:13:01;23.40;69.10
3134;DHT22;1577;49.912;10.924;2022-09-01T15:15:28;23.40;69.40
3134;DHT22;1577;49.912;10.924;2022-09-01T15:17:55;23.40;69.20
3134;DHT22;1577;49.912;10.924;2022-09-01T15:20:21;23.30;68.70
3134;DHT22;1577;49.912;10.924;2022-09-01T15:23:06;23.20;69.30
3134;DHT22;1577;49.912;10.924;2022-09-01T15:25:32;23.10;68.40
3134;DHT22;1577;49.912;10.924;2022-09-01T15:27:58;23.00;68.90
3134;DHT22;1577;49.912;10.924;2022-09-01T15:30:23;23.00;68.90
3134;DHT22;1577;49.912;10.924;2022-09-01T15:32:51;22.90;69.40
3134;DHT22;1577;49.912;10.924;2022-09-01T15:35:18;22.80;69.60
3134;DHT22;1577;49.912;10.924;2022-09-01T15:37:48;22.80;71.30
3134;DHT22;1577;49.912;10.924;2022-09-01T15:40:15;22.80;71.50
3134;DHT22;1577;49.912;10.924;2022-09-01T15:42:41;22.90;71.70
3134;DHT22;1577;49.912;10.924;2022-09-01T15:45:13;23.00;71.30
3134;DHT22;1577;49.912;10.924;2022-09-01T15:47:39;22.90;69.90
3134;DHT22;1577;49.912;10.924;2022-09-01T15:50:07;22.90;70.00
3134;DHT22;1577;49.912;10.924;2022-09-01T15:52:33;22.80;70.00
3134;DHT22;1577;49.912;10.924;2022-09-01T15:54:59;22.80;70.50
3134;DHT22;1577;49.912;10.924;2022-09-01T15:57:25;22.80;70.40
3134;DHT22;1577;49.912;10.924;2022-09-01T15:59:51;22.80;70.30
3134;DHT22;1577;49.912;10.924;2022-09-01T16:02:17;22.70;70.00
3134;DHT22;1577;49.912;10.924;2022-09-01T16:04:46;22.90;70.70
3134;DHT22;1577;49.912;10.924;2022-09-01T16:07:11;22.90;70.60
3134;DHT22;1577;49.912;10.924;2022-09-01T16:09:37;22.90;71.20
3134;DHT22;1577;49.912;10.924;2022-09-01T16:12:03;22.80;71.70
3134;DHT22;1577;49.912;10.924;2022-09-01T16:14:29;22.80;72.10
3134;DHT22;1577;49.912;10.924;2022-09-01T16:17:01;22.70;72.50
3134;DHT22;1577;49.912;10.924;2022-09-01T16:22:51;22.60;72.30
3134;DHT22;1577;49.912;10.924;2022-09-01T16:25:26;22.60;72.30
3134;DHT22;1577;49.912;10.924;2022-09-01T16:27:54;22.60;73.40
3134;DHT22;1577;49.912;10.924;2022-09-01T16:30:26;22.50;73.10
3134;DHT22;1577;49.912;10.924;2022-09-01T16:32:56;22.50;73.40
3134;DHT22;1577;49.912;10.924;2022-09-01T16:35:34;22.50;72.70
3134;DHT22;1577;49.912;10.924;2022-09-01T16:41:08;22.30;73.80
3134;DHT22;1577;49.912;10.924;2022-09-01T16:44:03;22.20;72.70
3134;DHT22;1577;49.912;10.924;2022-09-01T16:46:38;22.10;73.30
3134;DHT22;1577;49.912;10.924;2022-09-01T16:49:43;22.10;73.40
3134;DHT22;1577;49.912;10.924;2022-09-01T16:52:27;22.00;74.00
3134;DHT22;1577;49.912;10.924;2022-09-01T16:58:06;21.90;74.20
3134;DHT22;1577;49.912;10.924;2022-09-01T17:03:29;21.80;74.50
3134;DHT22;1577;49.912;10.924;2022-09-01T17:08:49;21.80;75.20
3134;DHT22;1577;49.912;10.924;2022-09-01T17:11:26;21.80;75.40
3134;DHT22;1577;49.912;10.924;2022-09-01T17:13:56;21.70;74.10
3134;DHT22;1577;49.912;10.924;2022-09-01T17:16:31;21.70;74.70
3134;DHT22;1577;49.912;10.924;2022-09-01T17:19:04;21.60;74.60
3134;DHT22;1577;49.912;10.924;2022-09-01T17:21:44;21.60;74.80
3134;DHT22;1577;49.912;10.924;2022-09-01T17:24:22;21.60;75.30
3134;DHT22;1577;49.912;10.924;2022-09-01T17:26:55;21.60;75.50
3134;DHT22;1577;49.912;10.924;2022-09-01T17:29:28;21.50;76.00
3134;DHT22;1577;49.912;10.924;2022-09-01T17:40:22;21.20;75.20
3134;DHT22;1577;49.912;10.924;2022-09-01T17:43:10;21.20;76.00
3134;DHT22;1577;49.912;10.924;2022-09-01T17:45:48;21.10;75.70
3134;DHT22;1577;49.912;10.924;2022-09-01T17:51:05;20.90;75.80
3134;DHT22;1577;49.912;10.924;2022-09-01T17:53:57;20.90;76.30
3134;DHT22;1577;49.912;10.924;2022-09-01T17:56:47;20.80;76.50
3134;DHT22;1577;49.912;10.924;2022-09-01T18:09:23;20.40;78.20
3134;DHT22;1577;49.912;10.924;2022-09-01T18:12:00;20.30;78.80
3134;DHT22;1577;49.912;10.924;2022-09-01T18:14:33;20.20;79.60
3134;DHT22;1577;49.912;10.924;2022-09-01T18:20:29;20.00;79.70
3134;DHT22;1577;49.912;10.924;2022-09-01T18:23:10;19.80;79.80